Time;durP1;ratioP1;P1;durP2;ratioP2;P2;SDS_P1;SDS_P2;PMS_P1;PMS_P2;Temp;Humidity;BMP_temperature;BMP_pressure;BME280_temperature;BME280_humidity;BME280_pressure;Samples;Min_cycle;Max_cycle;Signal;HPM_P1;HPM_P2
2022/08/25 00:01:29;;;;;;;12.73;9.50;;;21.80;99.90;;;;;;5083995;28;20393;-81
2022/08/25 00:04:15;;;;;;;10.57;8.97;;;21.90;99.90;;;;;;5087199;28;20385;-82
2022/08/25 00:07:02;;;;;;;12.10;8.97;;;21.90;99.90;;;;;;5084201;28;20393;-80
2022/08/25 00:09:46;;;;;;;16.73;8.40;;;21.90;99.90;;;;;;5084262;28;20888;-81
2022/08/25 00:12:31;;;;;;;10.00;8.70;;;21.80;99.90;;;;;;5084273;28;20396;-81
2022/08/25 00:15:16;;;;;;;11.30;10.03;;;21.80;99.90;;;;;;5083998;28;20467;-80
2022/08/25 00:18:01;;;;;;;11.50;10.10;;;21.80;99.90;;;;;;5087700;28;20408;-81
2022/08/25 00:20:47;;;;;;;13.47;10.13;;;21.70;99.90;;;;;;5089423;28;20393;-81
2022/08/25 00:23:32;;;;;;;10.73;8.60;;;21.60;99.90;;;;;;5088045;28;20686;-82
2022/08/25 00:26:17;;;;;;;10.73;8.67;;;21.60;99.90;;;;;;5082932;28;20408;-79
2022/08/25 00:29:02;;;;;;;10.13;9.00;;;21.60;99.90;;;;;;5082201;28;20408;-78
2022/08/25 00:31:47;;;;;;;10.60;9.70;;;21.50;99.90;;;;;;5098084;28;20385;-79
2022/08/25 00:34:36;;;;;;;12.57;8.43;;;21.40;99.90;;;;;;5098105;28;20452;-78
2022/08/25 00:37:20;;;;;;;11.30;10.20;;;21.40;99.90;;;;;;5097794;28;20865;-79
2022/08/25 00:40:06;;;;;;;13.70;10.73;;;21.30;99.90;;;;;;5097331;28;20389;-79
2022/08/25 00:42:50;;;;;;;16.03;10.43;;;21.30;99.90;;;;;;5088630;28;20415;-81
2022/08/25 00:45:34;;;;;;;14.70;9.50;;;21.30;99.90;;;;;;5087779;28;20597;-81
2022/08/25 00:48:19;;;;;;;12.33;9.77;;;21.30;99.90;;;;;;5087635;28;20384;-81
2022/08/25 00:51:06;;;;;;;10.17;9.27;;;21.30;99.90;;;;;;5087263;28;20393;-82
2022/08/25 00:53:51;;;;;;;9.77;8.77;;;21.20;99.90;;;;;;5087830;28;20452;-81
2022/08/25 00:56:36;;;;;;;9.77;8.77;;;21.20;99.90;;;;;;5087357;28;20417;-81
2022/08/25 00:59:22;;;;;;;12.47;9.53;;;21.10;99.90;;;;;;5087729;28;20388;-81
2022/08/25 01:02:08;;;;;;;13.70;9.60;;;21.00;99.90;;;;;;5087505;28;20385;-81
2022/08/25 01:04:53;;;;;;;11.30;9.47;;;21.00;99.90;;;;;;5087025;28;20393;-80
2022/08/25 01:07:39;;;;;;;10.80;9.07;;;21.00;99.90;;;;;;5086811;28;20381;-81
2022/08/25 01:10:25;;;;;;;11.63;10.30;;;21.00;99.90;;;;;;5087386;28;20449;-81
2022/08/25 01:13:24;;;;;;;10.10;9.10;;;21.00;99.90;;;;;;5087929;28;20381;-81
2022/08/25 01:16:10;;;;;;;11.40;9.27;;;20.90;99.90;;;;;;5071382;28;20905;-80
2022/08/25 01:18:59;;;;;;;12.67;10.77;;;20.90;99.90;;;;;;5071013;28;20400;-81
2022/08/25 01:21:48;;;;;;;10.73;8.97;;;20.90;99.90;;;;;;5086220;28;20381;-81
2022/08/25 01:25:02;;;;;;;12.63;8.77;;;21.00;99.90;;;;;;5072436;28;20382;-81
2022/08/25 01:27:47;;;;;;;15.53;10.70;;;21.00;99.90;;;;;;5087143;28;20434;-81
2022/08/25 01:30:32;;;;;;;11.37;9.50;;;20.90;99.90;;;;;;5086199;28;20396;-81
2022/08/25 01:33:17;;;;;;;13.83;12.23;;;20.90;99.90;;;;;;5086642;28;20391;-81
2022/08/25 01:36:01;;;;;;;11.77;10.20;;;20.80;99.90;;;;;;5086616;28;20446;-81
2022/08/25 01:38:46;;;;;;;10.70;9.63;;;20.80;99.90;;;;;;5086765;28;20385;-81
2022/08/25 01:42:00;;;;;;;13.40;11.30;;;20.70;99.90;;;;;;5086012;28;20741;-81
2022/08/25 01:44:46;;;;;;;12.63;8.47;;;20.70;99.90;;;;;;5073648;28;20443;-81
2022/08/25 01:47:31;;;;;;;11.77;10.57;;;20.70;99.90;;;;;;5085793;28;20458;-82
2022/08/25 01:50:15;;;;;;;11.73;9.83;;;20.80;99.90;;;;;;5086242;28;20424;-80
2022/08/25 01:53:17;;;;;;;11.60;9.77;;;20.80;99.90;;;;;;5085128;28;20431;-81
2022/08/25 01:56:16;;;;;;;12.20;10.00;;;20.80;99.90;;;;;;5085399;28;20452;-81
2022/08/25 01:59:00;;;;;;;10.43;9.40;;;20.80;99.90;;;;;;5085344;28;20370;-81
2022/08/25 02:01:45;;;;;;;17.57;11.00;;;20.70;99.90;;;;;;5070282;28;20377;-81
2022/08/25 02:04:31;;;;;;;12.50;10.20;;;20.70;99.90;;;;;;5084970;28;20396;-81
2022/08/25 02:07:16;;;;;;;13.83;10.13;;;20.60;99.90;;;;;;5085963;28;20389;-81
2022/08/25 02:10:03;;;;;;;11.93;10.73;;;20.60;99.90;;;;;;5070684;28;20380;-80
2022/08/25 02:12:50;;;;;;;12.87;9.77;;;20.60;99.90;;;;;;5070569;28;20413;-81
2022/08/25 02:15:41;;;;;;;12.90;10.60;;;20.60;99.90;;;;;;5086036;28;20792;-81
2022/08/25 02:18:26;;;;;;;11.00;9.90;;;20.60;99.90;;;;;;5085995;28;20434;-81
2022/08/25 02:21:11;;;;;;;13.30;11.90;;;20.60;99.90;;;;;;5085781;28;20377;-80
2022/08/25 02:23:55;;;;;;;13.33;11.10;;;20.50;99.90;;;;;;5085874;28;20393;-81
2022/08/25 02:26:40;;;;;;;12.73;11.43;;;20.60;99.90;;;;;;5085866;28;20432;-81
2022/08/25 02:29:25;;;;;;;13.73;10.30;;;20.60;99.90;;;;;;5085101;28;20480;-81
2022/08/25 02:32:09;;;;;;;10.97;9.90;;;20.50;99.90;;;;;;5086323;28;20820;-81
2022/08/25 02:34:54;;;;;;;14.60;11.87;;;20.60;99.90;;;;;;5085026;28;20476;-81
2022/08/25 02:37:38;;;;;;;14.20;11.10;;;20.60;99.90;;;;;;5084607;28;20393;-81
2022/08/25 02:40:23;;;;;;;10.73;9.57;;;20.50;99.90;;;;;;5085515;28;20388;-80
2022/08/25 02:43:07;;;;;;;12.20;10.60;;;20.50;99.90;;;;;;5089850;28;20466;-80
2022/08/25 02:45:54;;;;;;;11.20;9.43;;;20.50;99.90;;;;;;5094563;28;20471;-81
2022/08/25 02:48:39;;;;;;;17.43;11.63;;;20.50;99.90;;;;;;5086175;28;20381;-81
2022/08/25 02:51:28;;;;;;;10.63;9.20;;;20.40;99.90;;;;;;5087084;28;20627;-81
2022/08/25 02:54:13;;;;;;;14.20;10.83;;;20.40;99.90;;;;;;5085913;28;20436;-81
2022/08/25 02:56:58;;;;;;;15.13;11.87;;;20.40;99.90;;;;;;5086262;28;20420;-80
2022/08/25 02:59:47;;;;;;;17.67;11.90;;;20.30;99.90;;;;;;5085675;28;20405;-80
2022/08/25 03:02:31;;;;;;;13.67;10.67;;;20.30;99.90;;;;;;5085840;28;20408;-80
2022/08/25 03:05:16;;;;;;;14.37;12.43;;;20.30;99.90;;;;;;5085762;28;20461;-81
2022/08/25 03:08:00;;;;;;;14.87;12.00;;;20.30;99.90;;;;;;5085051;28;20926;-81
2022/08/25 03:10:45;;;;;;;13.33;11.37;;;20.20;99.90;;;;;;5069526;28;20464;-80
2022/08/25 03:13:29;;;;;;;12.37;10.40;;;20.20;99.90;;;;;;5085671;28;20432;-80
2022/08/25 03:16:13;;;;;;;12.17;10.37;;;20.20;99.90;;;;;;5085337;28;20935;-81
2022/08/25 03:18:58;;;;;;;12.20;9.97;;;20.10;99.90;;;;;;5069361;28;20459;-81
2022/08/25 03:21:44;;;;;;;16.90;12.20;;;20.10;99.90;;;;;;5084891;28;20385;-81
2022/08/25 03:24:29;;;;;;;15.70;11.53;;;20.10;99.90;;;;;;5069410;28;20428;-81
2022/08/25 03:27:13;;;;;;;14.80;12.40;;;20.20;99.90;;;;;;5084752;28;20378;-81
2022/08/25 03:29:58;;;;;;;15.20;10.77;;;20.20;99.90;;;;;;5084833;28;20393;-80
2022/08/25 03:32:44;;;;;;;12.20;10.60;;;20.20;99.90;;;;;;5069550;28;20385;-81
2022/08/25 03:35:30;;;;;;;12.80;11.50;;;20.10;99.90;;;;;;5084772;28;20441;-80
2022/08/25 03:38:15;;;;;;;13.40;11.40;;;20.10;99.90;;;;;;5084231;28;20385;-81
2022/08/25 03:41:00;;;;;;;13.93;11.60;;;20.10;99.90;;;;;;5086171;28;20381;-81
2022/08/25 03:43:45;;;;;;;13.87;11.53;;;20.10;99.90;;;;;;5088020;28;20432;-80
2022/08/25 03:46:34;;;;;;;17.93;11.73;;;20.10;99.90;;;;;;5091365;28;20550;-80
2022/08/25 03:49:22;;;;;;;14.60;11.87;;;20.00;99.90;;;;;;5126819;28;20394;-80
2022/08/25 03:52:07;;;;;;;15.07;11.43;;;20.00;99.90;;;;;;5128794;28;20474;-80
2022/08/25 03:54:51;;;;;;;15.33;11.20;;;19.90;99.90;;;;;;5114396;28;20546;-81
2022/08/25 03:57:35;;;;;;;13.50;11.90;;;19.90;99.90;;;;;;5131363;28;20476;-81
2022/08/25 04:00:21;;;;;;;14.50;11.83;;;19.90;99.90;;;;;;5132234;28;20379;-81
2022/08/25 04:03:06;;;;;;;14.97;10.23;;;19.80;99.90;;;;;;5132733;28;20391;-81
2022/08/25 04:05:52;;;;;;;13.90;11.37;;;19.70;99.90;;;;;;5133810;28;20375;-80
2022/08/25 04:08:37;;;;;;;15.30;10.83;;;19.70;99.90;;;;;;5118811;28;20383;-80
2022/08/25 04:11:23;;;;;;;16.57;11.57;;;19.70;99.90;;;;;;5132573;28;20383;-81
2022/08/25 04:14:07;;;;;;;15.53;11.57;;;19.80;99.90;;;;;;5130765;28;20446;-81
2022/08/25 04:16:52;;;;;;;14.43;11.87;;;19.80;99.90;;;;;;5129229;28;20425;-81
2022/08/25 04:19:37;;;;;;;13.57;12.13;;;19.80;99.90;;;;;;5128033;28;20383;-80
2022/08/25 04:22:21;;;;;;;15.40;11.53;;;19.80;99.90;;;;;;5129009;28;20399;-81
2022/08/25 04:25:06;;;;;;;15.50;12.50;;;19.80;99.90;;;;;;5128437;28;20460;-81
2022/08/25 04:27:51;;;;;;;14.93;11.17;;;19.80;99.90;;;;;;5128558;28;20382;-81
2022/08/25 04:30:40;;;;;;;20.73;12.50;;;19.80;99.90;;;;;;5128969;28;20413;-82
2022/08/25 04:33:24;;;;;;;12.57;11.27;;;19.80;99.90;;;;;;5128018;28;20445;-82
2022/08/25 04:36:11;;;;;;;15.70;12.10;;;19.70;99.90;;;;;;5128738;28;20414;-82
2022/08/25 04:38:56;;;;;;;20.10;11.03;;;19.70;99.90;;;;;;5128748;28;20383;-80
2022/08/25 04:41:40;;;;;;;17.20;11.77;;;19.70;99.90;;;;;;5129331;28;20398;-80
2022/08/25 04:44:25;;;;;;;16.10;13.03;;;19.70;99.90;;;;;;5129744;28;20382;-82
2022/08/25 04:47:11;;;;;;;14.33;11.57;;;19.70;99.90;;;;;;5129693;28;20425;-81
2022/08/25 04:49:55;;;;;;;13.20;11.77;;;19.70;99.90;;;;;;5128763;28;20406;-81
2022/08/25 04:52:39;;;;;;;15.57;11.97;;;19.70;99.90;;;;;;5123616;28;20463;-81
2022/08/25 04:55:24;;;;;;;18.80;12.93;;;19.70;99.90;;;;;;5129205;28;20492;-81
2022/08/25 04:58:08;;;;;;;14.53;11.03;;;19.70;99.90;;;;;;5129302;28;20411;-81
2022/08/25 05:01:02;;;;;;;15.17;12.37;;;19.70;99.90;;;;;;5129504;28;20875;-82
2022/08/25 05:03:55;;;;;;;14.63;12.63;;;19.80;99.90;;;;;;5116816;28;20528;-81
2022/08/25 05:06:40;;;;;;;16.30;11.73;;;19.80;99.90;;;;;;5109470;28;20385;-81
2022/08/25 05:09:25;;;;;;;13.37;11.57;;;19.80;99.90;;;;;;5109117;28;20900;-80
2022/08/25 05:12:09;;;;;;;15.70;12.77;;;19.90;99.90;;;;;;5110930;28;20736;-81
2022/08/25 05:14:54;;;;;;;17.63;13.00;;;19.80;99.90;;;;;;5114821;28;20930;-81
2022/08/25 05:17:39;;;;;;;15.07;11.70;;;19.90;99.90;;;;;;5116856;28;20411;-81
2022/08/25 05:20:23;;;;;;;16.27;12.77;;;19.90;99.90;;;;;;5113197;28;20456;-78
2022/08/25 05:23:07;;;;;;;17.77;13.83;;;19.90;99.90;;;;;;5116045;28;20438;-80
2022/08/25 05:25:52;;;;;;;15.33;12.13;;;19.90;99.90;;;;;;5127853;28;20453;-81
2022/08/25 05:28:40;;;;;;;17.83;13.83;;;19.90;99.90;;;;;;5099655;28;20436;-83
2022/08/25 05:31:26;;;;;;;17.33;13.03;;;20.00;99.90;;;;;;5118247;28;20460;-81
2022/08/25 05:34:11;;;;;;;16.70;13.60;;;20.00;99.90;;;;;;5122842;28;20456;-81
2022/08/25 05:36:58;;;;;;;19.63;13.30;;;20.10;99.90;;;;;;5127015;28;20403;-82
2022/08/25 05:39:42;;;;;;;16.60;12.90;;;20.10;99.90;;;;;;5109132;28;20430;-82
2022/08/25 05:42:27;;;;;;;20.07;13.40;;;20.20;99.90;;;;;;5119762;28;20415;-82
2022/08/25 05:45:12;;;;;;;18.03;13.53;;;20.20;99.90;;;;;;5119829;28;20463;-82
2022/08/25 05:47:57;;;;;;;19.80;14.20;;;20.20;99.90;;;;;;5117983;28;20441;-82
2022/08/25 05:50:41;;;;;;;18.53;14.23;;;20.30;99.90;;;;;;5108729;28;20499;-81
2022/08/25 05:53:28;;;;;;;17.37;13.20;;;20.40;99.90;;;;;;5131146;27;20480;-82
2022/08/25 05:56:13;;;;;;;18.93;13.03;;;20.40;99.90;;;;;;5136391;27;20537;-82
2022/08/25 05:58:58;;;;;;;18.93;14.30;;;20.50;99.90;;;;;;5126839;28;20427;-82
2022/08/25 06:04:45;;;;;;;16.17;12.30;;;20.60;99.90;;;;;;5115598;28;20426;-82
2022/08/25 06:07:29;;;;;;;17.97;13.70;;;20.70;99.90;;;;;;5117188;28;20427;-82
2022/08/25 06:10:14;;;;;;;21.50;13.60;;;20.70;99.90;;;;;;5111604;28;20423;-82
2022/08/25 06:12:59;;;;;;;14.70;13.13;;;20.70;99.90;;;;;;5118472;28;20471;-82
2022/08/25 06:15:44;;;;;;;14.90;13.37;;;20.80;99.90;;;;;;5136621;27;20449;-82
2022/08/25 06:18:29;;;;;;;22.83;14.93;;;20.80;99.90;;;;;;5111983;28;20416;-82
2022/08/25 06:21:15;;;;;;;19.60;14.10;;;20.90;99.90;;;;;;5112480;28;20960;-79
2022/08/25 06:23:59;;;;;;;28.20;14.90;;;20.90;99.90;;;;;;5124467;27;20432;-79
2022/08/25 06:26:45;;;;;;;16.23;13.27;;;20.90;99.90;;;;;;5119736;27;20443;-79
2022/08/25 06:29:29;;;;;;;20.20;14.83;;;21.00;99.90;;;;;;5109821;28;20442;-82
2022/08/25 06:32:13;;;;;;;18.40;14.93;;;21.00;99.90;;;;;;5118526;28;20439;-82
2022/08/25 06:34:59;;;;;;;21.10;15.23;;;21.10;99.90;;;;;;5122833;27;20469;-79
2022/08/25 06:37:44;;;;;;;16.13;14.43;;;21.20;99.90;;;;;;5117080;28;20997;-82
2022/08/25 06:40:28;;;;;;;17.20;13.83;;;21.20;99.90;;;;;;5120937;28;20421;-81
2022/08/25 06:43:13;;;;;;;31.23;14.70;;;21.30;99.90;;;;;;5110898;28;20427;-81
2022/08/25 06:45:57;;;;;;;18.40;14.37;;;21.40;99.90;;;;;;5115447;28;20466;-82
2022/08/25 06:48:42;;;;;;;16.90;14.00;;;21.50;99.90;;;;;;5094336;28;20413;-81
2022/08/25 06:51:26;;;;;;;20.63;13.77;;;21.60;99.90;;;;;;5105866;28;20493;-81
2022/08/25 06:54:11;;;;;;;20.23;13.20;;;21.70;99.90;;;;;;5110667;28;20512;-81
2022/08/25 06:56:56;;;;;;;27.37;14.53;;;21.70;99.90;;;;;;5098885;28;20532;-79
2022/08/25 06:59:41;;;;;;;18.37;13.77;;;21.80;99.90;;;;;;5085150;28;20424;-79
2022/08/25 07:02:25;;;;;;;20.20;14.00;;;21.90;99.90;;;;;;5083643;28;20742;-79
2022/08/25 07:05:10;;;;;;;17.43;14.37;;;22.00;99.90;;;;;;5085336;28;20538;-79
2022/08/25 07:07:55;;;;;;;16.67;13.60;;;22.10;99.90;;;;;;5098460;28;20420;-80
2022/08/25 07:10:39;;;;;;;22.90;14.20;;;22.20;99.90;;;;;;5100630;28;20427;-79
2022/08/25 07:13:24;;;;;;;19.60;14.00;;;22.20;99.90;;;;;;5095808;28;20498;-82
2022/08/25 07:16:10;;;;;;;22.70;14.37;;;22.40;99.90;;;;;;5097883;28;20439;-82
2022/08/25 07:19:27;;;;;;;15.10;13.50;;;22.50;99.90;;;;;;5098158;28;20440;-79
2022/08/25 07:22:12;;;;;;;15.17;12.83;;;22.70;99.90;;;;;;5093473;28;20566;-81
2022/08/25 07:24:56;;;;;;;14.83;13.20;;;22.80;99.90;;;;;;5079111;28;20510;-81
2022/08/25 07:27:40;;;;;;;15.40;13.07;;;22.90;99.90;;;;;;5097844;28;20565;-81
2022/08/25 07:30:25;;;;;;;15.77;13.30;;;23.00;99.90;;;;;;5077540;28;20443;-80
2022/08/25 07:33:09;;;;;;;16.57;13.97;;;23.10;99.90;;;;;;5080232;28;20495;-82
2022/08/25 07:35:54;;;;;;;15.27;12.80;;;23.20;99.90;;;;;;5099579;28;20454;-81
2022/08/25 07:38:38;;;;;;;17.53;13.80;;;23.40;99.90;;;;;;5094004;28;20428;-81
2022/08/25 07:41:24;;;;;;;21.70;12.87;;;23.50;99.90;;;;;;5108362;28;20469;-82
2022/08/25 07:44:11;;;;;;;19.80;12.07;;;23.60;99.90;;;;;;5094723;28;20422;-81
2022/08/25 07:46:55;;;;;;;13.37;10.73;;;23.30;99.90;;;;;;5092423;28;20533;-81
2022/08/25 07:49:39;;;;;;;14.30;11.20;;;23.30;99.90;;;;;;5112864;27;20470;-81
2022/08/25 07:52:24;;;;;;;18.67;11.33;;;23.30;99.90;;;;;;5121802;28;20414;-79
2022/08/25 07:55:10;;;;;;;12.00;10.83;;;23.40;99.90;;;;;;5118852;28;20612;-79
2022/08/25 07:57:55;;;;;;;13.83;10.90;;;23.50;99.90;;;;;;5105595;28;20462;-80
2022/08/25 08:00:40;;;;;;;12.40;11.20;;;23.40;99.90;;;;;;5108301;27;20428;-80
2022/08/25 08:03:25;;;;;;;13.33;10.33;;;23.50;99.90;;;;;;5118934;27;20484;-79
2022/08/25 08:06:13;;;;;;;12.07;10.87;;;23.80;99.90;;;;;;5117983;28;20428;-80
2022/08/25 08:08:58;;;;;;;12.57;10.70;;;23.90;99.90;;;;;;5126118;28;20541;-80
2022/08/25 08:11:43;;;;;;;15.27;11.43;;;23.80;99.90;;;;;;5128850;27;20423;-83
2022/08/25 08:14:28;;;;;;;13.03;11.70;;;23.90;99.90;;;;;;5120465;27;20467;-80
2022/08/25 08:17:13;;;;;;;11.60;10.50;;;23.90;99.90;;;;;;5130215;27;20410;-80
2022/08/25 08:19:58;;;;;;;11.13;10.03;;;23.70;99.90;;;;;;5124387;28;20446;-81
2022/08/25 08:22:44;;;;;;;11.20;10.10;;;24.00;99.90;;;;;;5121861;28;20425;-80
2022/08/25 08:25:28;;;;;;;16.07;9.83;;;24.00;99.90;;;;;;5124445;28;20496;-80
2022/08/25 08:28:13;;;;;;;11.87;10.77;;;24.00;99.90;;;;;;5113902;28;20438;-79
2022/08/25 08:30:58;;;;;;;13.00;10.80;;;24.00;99.90;;;;;;5121086;28;20412;-79
2022/08/25 08:33:42;;;;;;;9.70;8.90;;;24.30;99.90;;;;;;5122673;27;20457;-80
2022/08/25 08:36:27;;;;;;;14.00;10.47;;;24.20;99.90;;;;;;5121968;28;20407;-82
2022/08/25 08:39:12;;;;;;;10.93;9.90;;;24.20;99.90;;;;;;5125750;27;20479;-78
2022/08/25 08:42:18;;;;;;;14.57;9.10;;;24.20;99.90;;;;;;5118110;27;20449;-83
2022/08/25 08:45:20;;;;;;;11.93;9.17;;;24.60;99.90;;;;;;5093417;28;20474;-81
2022/08/25 08:48:31;;;;;;;10.70;9.70;;;24.70;99.90;;;;;;5107873;28;20425;-82
2022/08/25 08:51:29;;;;;;;11.20;10.10;;;25.00;99.90;;;;;;5115514;28;20488;-78
2022/08/25 08:54:19;;;;;;;10.60;9.53;;;25.10;99.90;;;;;;5113411;28;20458;-80
2022/08/25 08:57:12;;;;;;;17.50;11.60;;;24.80;99.90;;;;;;5113578;28;20459;-82
2022/08/25 09:00:03;;;;;;;13.17;9.57;;;25.00;99.90;;;;;;5114235;28;20451;-81
2022/08/25 09:03:05;;;;;;;10.43;9.40;;;25.10;99.90;;;;;;5117681;27;20447;-79
2022/08/25 09:05:53;;;;;;;11.47;8.77;;;25.20;99.90;;;;;;5118566;28;20464;-80
2022/08/25 09:08:43;;;;;;;10.67;9.20;;;25.50;99.90;;;;;;5117137;27;20441;-80
2022/08/25 09:11:56;;;;;;;11.97;10.73;;;25.80;99.90;;;;;;5125453;28;20407;-79
2022/08/25 09:15:01;;;;;;;11.03;9.50;;;25.70;99.90;;;;;;5099712;28;20507;-80
2022/08/25 09:18:10;;;;;;;20.10;13.87;;;26.00;99.90;;;;;;5106546;28;20451;-80
2022/08/25 09:21:20;;;;;;;12.70;9.90;;;25.80;99.90;;;;;;5116790;28;20499;-81
2022/08/25 09:24:33;;;;;;;10.50;9.07;;;25.50;99.90;;;;;;5116755;28;20431;-80
2022/08/25 09:27:48;;;;;;;14.40;8.77;;;26.00;99.90;;;;;;5053713;28;20437;-81
2022/08/25 09:30:42;;;;;;;11.90;8.13;;;26.40;99.90;;;;;;5037639;28;20435;-81
2022/08/25 09:33:30;;;;;;;9.47;8.63;;;26.50;99.90;;;;;;5054603;28;20430;-81
2022/08/25 09:36:14;;;;;;;9.73;8.83;;;26.30;99.90;;;;;;5050867;28;20492;-80
2022/08/25 09:39:00;;;;;;;9.17;8.17;;;26.60;99.90;;;;;;5046273;28;20501;-82
2022/08/25 09:41:48;;;;;;;9.10;8.20;;;26.70;99.90;;;;;;5056758;28;20548;-81
2022/08/25 09:44:42;;;;;;;9.90;8.90;;;26.60;99.90;;;;;;5049080;28;20503;-82
2022/08/25 09:47:27;;;;;;;8.87;7.87;;;26.60;99.90;;;;;;5050211;28;20464;-80
2022/08/25 09:50:16;;;;;;;9.07;8.27;;;26.70;99.90;;;;;;5043660;28;20445;-80
2022/08/25 09:53:14;;;;;;;14.60;8.90;;;26.90;99.90;;;;;;5054874;28;20454;-81
2022/08/25 09:56:04;;;;;;;9.50;8.47;;;27.00;99.90;;;;;;5046280;28;20504;-82
2022/08/25 09:58:49;;;;;;;8.80;8.07;;;27.10;99.90;;;;;;5100144;27;20553;-80
2022/08/25 10:01:48;;;;;;;8.57;7.70;;;26.80;99.90;;;;;;5083643;28;20446;-82
2022/08/25 10:04:38;;;;;;;9.70;8.00;;;26.60;99.90;;;;;;5106749;28;20539;-82
2022/08/25 10:07:36;;;;;;;9.37;8.43;;;27.40;99.90;;;;;;5110683;28;20466;-81
2022/08/25 10:10:35;;;;;;;16.70;8.90;;;27.20;99.90;;;;;;5102322;28;20431;-82
2022/08/25 10:13:22;;;;;;;8.30;7.20;;;27.20;99.90;;;;;;5110937;28;20476;-81
2022/08/25 10:16:25;;;;;;;8.97;8.17;;;27.80;99.90;;;;;;5112173;28;20494;-81
2022/08/25 10:19:21;;;;;;;8.80;7.37;;;27.80;99.90;;;;;;5051131;28;20475;-81
2022/08/25 10:22:10;;;;;;;8.80;7.93;;;28.20;99.90;;;;;;5056003;28;20511;-81
2022/08/25 10:25:15;;;;;;;8.87;7.40;;;28.80;99.90;;;;;;5056084;28;20444;-80
2022/08/25 10:28:19;;;;;;;23.20;14.80;;;29.20;99.90;;;;;;4999618;28;20536;-83
2022/08/25 10:31:24;;;;;;;8.03;7.33;;;29.00;99.90;;;;;;4978392;28;20960;-81
2022/08/25 10:34:27;;;;;;;7.33;5.70;;;29.60;99.90;;;;;;4981051;28;20506;-78
2022/08/25 10:37:34;;;;;;;6.80;6.13;;;28.80;99.90;;;;;;4996567;28;20551;-81
2022/08/25 10:40:28;;;;;;;10.27;7.87;;;28.70;99.90;;;;;;4997972;28;20448;-80
2022/08/25 10:43:37;;;;;;;16.97;15.30;;;28.60;99.90;;;;;;4995909;28;20467;-82
2022/08/25 10:46:38;;;;;;;8.47;6.43;;;28.80;99.90;;;;;;4978665;28;20542;-80
2022/08/25 10:49:38;;;;;;;9.47;7.10;;;28.50;99.90;;;;;;5008078;28;20929;-82
2022/08/25 10:52:45;;;;;;;18.87;15.83;;;28.30;99.90;;;;;;5048104;28;20460;-80
2022/08/25 10:55:52;;;;;;;10.77;9.87;;;28.40;99.90;;;;;;5048942;28;20456;-80
2022/08/25 10:59:03;;;;;;;7.30;6.60;;;28.50;99.90;;;;;;5081107;28;20446;-81
2022/08/25 11:02:12;;;;;;;8.37;7.57;;;29.60;99.90;;;;;;5106478;28;20515;-80
2022/08/25 11:05:10;;;;;;;12.73;11.53;;;29.50;99.90;;;;;;5095607;28;20427;-80
2022/08/25 11:08:06;;;;;;;26.20;23.07;;;29.40;99.90;;;;;;5073187;28;20414;-78
2022/08/25 11:10:57;;;;;;;7.13;6.40;;;29.00;99.90;;;;;;5107172;27;20435;-77
2022/08/25 11:14:10;;;;;;;17.17;8.93;;;29.10;99.90;;;;;;5098015;28;20510;-79
2022/08/25 11:17:05;;;;;;;7.87;7.17;;;29.00;99.90;;;;;;5079745;23;20557;-79
2022/08/25 11:19:58;;;;;;;12.77;6.00;;;29.40;99.90;;;;;;5057559;28;20464;-81
2022/08/25 11:22:54;;;;;;;8.90;8.03;;;29.00;99.90;;;;;;5045044;28;20531;-81
2022/08/25 11:25:44;;;;;;;7.97;7.27;;;30.20;99.90;;;;;;5017114;28;20437;-82
2022/08/25 11:28:41;;;;;;;8.80;8.07;;;30.90;98.60;;;;;;5033818;28;20440;-82
2022/08/25 11:31:51;;;;;;;9.48;8.50;;;31.10;97.60;;;;;;5002157;28;20447;-80
2022/08/25 11:34:36;;;;;;;7.50;6.70;;;31.50;95.00;;;;;;4989455;28;20239;-77
2022/08/25 11:37:26;;;;;;;9.18;7.72;;;31.30;94.20;;;;;;4976885;28;20204;-79
2022/08/25 11:40:31;;;;;;;6.88;6.20;;;31.00;93.70;;;;;;4989940;28;20225;-79
2022/08/25 11:43:43;;;;;;;8.18;6.13;;;31.10;94.10;;;;;;4987680;28;20590;-79
2022/08/25 11:46:48;;;;;;;9.40;8.45;;;32.00;92.10;;;;;;4998459;28;20240;-80
2022/08/25 11:49:53;;;;;;;12.20;10.88;;;32.20;91.40;;;;;;5002444;28;20192;-81
2022/08/25 11:52:44;;;;;;;8.55;7.85;;;31.10;92.70;;;;;;4984335;28;20315;-80
2022/08/25 11:55:50;;;;;;;8.57;6.97;;;30.80;92.70;;;;;;4998144;28;20264;-81
2022/08/25 11:58:45;;;;;;;10.15;9.15;;;30.70;94.00;;;;;;4958696;28;20204;-81
2022/08/25 12:02:01;;;;;;;17.33;7.15;;;31.60;92.50;;;;;;4978987;28;20312;-83
2022/08/25 12:05:07;;;;;;;7.38;6.82;;;31.10;92.20;;;;;;4966887;28;20287;-79
2022/08/25 12:11:13;;;;;;;15.07;13.60;;;31.40;92.00;;;;;;4906792;29;20302;-79
2022/08/25 12:14:28;;;;;;;8.80;8.00;;;31.30;92.40;;;;;;4887342;29;20216;-81
2022/08/25 12:17:23;;;;;;;9.23;8.25;;;32.00;91.30;;;;;;4894115;29;20220;-81
2022/08/25 12:20:07;;;;;;;8.13;7.13;;;31.80;90.90;;;;;;4848850;29;20286;-81
2022/08/25 12:22:57;;;;;;;9.93;9.00;;;31.10;91.60;;;;;;4876352;29;20301;-81
2022/08/25 12:25:47;;;;;;;11.65;10.45;;;31.70;91.80;;;;;;4882173;29;20272;-82
2022/08/25 12:28:43;;;;;;;8.57;7.80;;;31.50;91.00;;;;;;4884735;29;20242;-80
2022/08/25 12:32:06;;;;;;;8.20;7.50;;;30.80;92.00;;;;;;4866458;29;20292;-81
2022/08/25 12:35:09;;;;;;;8.27;7.47;;;30.00;93.20;;;;;;4856169;29;20717;-80
2022/08/25 12:38:07;;;;;;;9.45;6.90;;;30.70;93.80;;;;;;4864376;29;20201;-82
2022/08/25 12:41:05;;;;;;;8.75;7.00;;;30.90;92.40;;;;;;4852802;29;20370;-81
2022/08/25 12:44:07;;;;;;;9.97;8.10;;;30.40;93.70;;;;;;4853785;29;20250;-79
2022/08/25 12:47:11;;;;;;;10.13;9.13;;;30.70;93.80;;;;;;4869024;29;20586;-80
2022/08/25 12:50:33;;;;;;;8.20;7.50;;;30.80;93.30;;;;;;4879644;29;20681;-82
2022/08/25 12:53:31;;;;;;;12.95;11.68;;;30.10;93.70;;;;;;4879487;29;20188;-80
2022/08/25 12:56:33;;;;;;;10.10;9.13;;;30.20;94.30;;;;;;4889595;29;20211;-81
2022/08/25 12:59:40;;;;;;;9.93;9.13;;;30.40;92.50;;;;;;4955115;28;20208;-82
2022/08/25 13:02:53;;;;;;;10.63;9.63;;;30.30;91.10;;;;;;4955103;28;20336;-80
2022/08/25 13:06:06;;;;;;;16.70;15.00;;;30.30;91.90;;;;;;4984576;28;21010;-82
2022/08/25 13:09:23;;;;;;;11.17;10.10;;;29.80;90.50;;;;;;4982786;28;20706;-82
2022/08/25 13:12:18;;;;;;;9.17;8.27;;;30.00;91.60;;;;;;4971022;28;20527;-81
2022/08/25 13:15:07;;;;;;;16.43;14.60;;;30.20;91.30;;;;;;4992890;28;20506;-82
2022/08/25 13:17:52;;;;;;;5.77;5.37;;;30.50;90.40;;;;;;4984718;28;20500;-82
2022/08/25 13:20:37;;;;;;;7.20;6.60;;;30.90;89.30;;;;;;4978098;28;20450;-81
2022/08/25 13:23:27;;;;;;;6.20;5.70;;;31.30;86.10;;;;;;5001869;28;20194;-81
2022/08/25 13:26:19;;;;;;;6.97;6.05;;;31.00;86.10;;;;;;4980682;28;20725;-81
2022/08/25 13:29:15;;;;;;;6.20;5.60;;;30.90;86.40;;;;;;4981445;28;20267;-82
2022/08/25 13:32:06;;;;;;;6.85;6.13;;;31.10;88.40;;;;;;4959750;28;20281;-81
2022/08/25 13:35:06;;;;;;;9.27;8.38;;;31.10;87.90;;;;;;5000429;28;20191;-80
2022/08/25 13:37:52;;;;;;;14.60;12.18;;;30.80;89.50;;;;;;4981523;28;20193;-80
2022/08/25 13:40:37;;;;;;;10.50;9.55;;;30.90;90.50;;;;;;4934043;29;20238;-83
2022/08/25 13:43:24;;;;;;;12.67;10.33;;;30.10;91.90;;;;;;4934242;28;20189;-80
2022/08/25 13:46:08;;;;;;;10.40;9.30;;;29.80;93.00;;;;;;4937055;29;20226;-81
2022/08/25 13:49:03;;;;;;;10.90;9.80;;;29.80;93.50;;;;;;4920138;29;20463;-82
2022/08/25 13:52:23;;;;;;;8.93;7.50;;;29.70;93.90;;;;;;4893273;29;20929;-82
2022/08/25 13:55:37;;;;;;;10.53;8.57;;;29.60;94.40;;;;;;4912793;29;20475;-80
2022/08/25 13:58:29;;;;;;;9.20;8.30;;;29.60;94.20;;;;;;4884254;29;20457;-82
2022/08/25 14:01:21;;;;;;;8.03;7.23;;;29.70;95.20;;;;;;4884391;29;20536;-80
2022/08/25 14:04:47;;;;;;;11.40;8.97;;;29.70;94.30;;;;;;4890953;29;20955;-82
2022/08/25 14:07:52;;;;;;;15.03;9.73;;;30.30;93.80;;;;;;4900036;29;20958;-81
2022/08/25 14:10:43;;;;;;;8.60;7.57;;;30.20;91.60;;;;;;4869378;29;20451;-80
2022/08/25 14:13:31;;;;;;;9.60;7.13;;;30.30;91.50;;;;;;4890447;29;20461;-82
2022/08/25 14:16:22;;;;;;;8.37;7.40;;;30.10;91.60;;;;;;4887275;29;20502;-81
2022/08/25 14:19:31;;;;;;;8.83;8.00;;;29.90;92.00;;;;;;4890188;29;20252;-80
2022/08/25 14:22:17;;;;;;;9.63;8.63;;;30.10;91.80;;;;;;4840697;29;20508;-81
2022/08/25 14:25:08;;;;;;;10.30;9.07;;;30.40;92.00;;;;;;4838131;29;20618;-81
2022/08/25 14:27:56;;;;;;;10.33;8.93;;;30.00;92.30;;;;;;4885610;29;20518;-81
2022/08/25 14:30:46;;;;;;;9.40;7.90;;;30.00;92.50;;;;;;4904548;29;20432;-80
2022/08/25 14:33:37;;;;;;;11.90;7.40;;;30.10;92.30;;;;;;4912805;29;20531;-80
2022/08/25 14:36:23;;;;;;;10.60;7.90;;;29.80;93.10;;;;;;4879960;29;20457;-81
2022/08/25 14:39:13;;;;;;;18.70;15.80;;;30.20;93.00;;;;;;4895882;29;20523;-78